createdAt,value
2023-05-19T00:01:18.736Z,19.79
2023-05-19T00:04:04.643Z,19.78
2023-05-19T00:06:32.406Z,19.73
2023-05-19T00:09:01.705Z,19.71
2023-05-19T00:11:28.922Z,19.68
2023-05-19T00:13:57.952Z,19.65
2023-05-19T00:16:26.121Z,19.64
2023-05-19T00:18:53.620Z,19.56
2023-05-19T00:21:20.459Z,19.61
2023-05-19T00:23:46.953Z,19.60
2023-05-19T00:26:13.584Z,19.58
2023-05-19T00:28:42.407Z,19.56
2023-05-19T00:31:09.014Z,19.56
2023-05-19T00:33:35.895Z,19.55
2023-05-19T00:36:03.613Z,19.54
2023-05-19T00:38:31.940Z,19.54
2023-05-19T00:41:00.814Z,19.54
2023-05-19T00:43:29.420Z,19.54
2023-05-19T00:45:56.809Z,19.54
2023-05-19T00:48:25.367Z,19.51
2023-05-19T00:50:54.330Z,19.49
2023-05-19T00:53:23.873Z,19.42
2023-05-19T00:55:50.536Z,19.32
2023-05-19T00:58:18.410Z,19.23
2023-05-19T01:00:45.162Z,19.18
2023-05-19T01:03:11.974Z,19.14
2023-05-19T01:05:44.103Z,19.10
2023-05-19T01:08:10.959Z,19.07
2023-05-19T01:10:37.792Z,19.04
2023-05-19T01:13:05.887Z,18.99
2023-05-19T01:15:55.787Z,18.93
2023-05-19T01:18:48.563Z,18.89
2023-05-19T01:22:00.416Z,18.89
2023-05-19T01:24:32.888Z,18.89
2023-05-19T01:27:41.504Z,18.89
2023-05-19T01:30:22.636Z,18.91
2023-05-19T01:32:52.689Z,18.90
2023-05-19T01:35:23.991Z,18.90
2023-05-19T01:37:57.589Z,18.90
2023-05-19T01:40:25.788Z,18.89
2023-05-19T01:42:57.312Z,18.88
2023-05-19T01:45:29.186Z,18.86
2023-05-19T01:47:58.638Z,18.84
2023-05-19T01:50:25.664Z,18.82
2023-05-19T01:52:53.085Z,18.79
2023-05-19T01:55:22.235Z,18.77
2023-05-19T01:58:06.224Z,18.75
2023-05-19T02:00:53.416Z,18.73
2023-05-19T02:03:42.740Z,18.68
2023-05-19T02:06:15.395Z,18.71
2023-05-19T02:08:50.687Z,18.71
2023-05-19T02:11:27.994Z,18.71
2023-05-19T02:13:59.898Z,18.70
2023-05-19T02:16:28.525Z,18.69
2023-05-19T02:18:55.745Z,18.69
2023-05-19T02:21:22.332Z,18.70
2023-05-19T02:23:50.273Z,18.72
2023-05-19T02:26:19.673Z,18.74
2023-05-19T02:28:46.309Z,18.75
2023-05-19T02:31:12.807Z,18.76
2023-05-19T02:33:39.401Z,18.75
2023-05-19T02:36:06.264Z,18.73
2023-05-19T02:38:32.962Z,18.73
2023-05-19T02:41:00.025Z,18.73
2023-05-19T02:43:26.636Z,18.73
2023-05-19T02:45:53.270Z,18.73
2023-05-19T02:48:20.128Z,18.73
2023-05-19T02:50:46.816Z,18.67
2023-05-19T02:53:13.369Z,18.60
2023-05-19T02:55:40.015Z,18.72
2023-05-19T02:58:06.813Z,18.71
2023-05-19T03:00:34.054Z,18.69
2023-05-19T03:03:02.060Z,18.68
2023-05-19T03:05:29.760Z,18.66
2023-05-19T03:07:56.482Z,18.65
2023-05-19T03:10:23.038Z,18.64
2023-05-19T03:12:50.324Z,18.64
2023-05-19T03:15:18.129Z,18.62
2023-05-19T03:17:44.920Z,18.60
2023-05-19T03:20:12.376Z,18.58
2023-05-19T03:22:39.204Z,18.57
2023-05-19T03:25:06.072Z,18.56
2023-05-19T03:27:32.836Z,18.54
2023-05-19T03:29:59.425Z,18.54
2023-05-19T03:32:26.503Z,18.55
2023-05-19T03:34:53.155Z,18.56
2023-05-19T03:37:19.740Z,18.58
2023-05-19T03:39:46.317Z,18.60
2023-05-19T03:42:13.754Z,18.62
2023-05-19T03:44:40.544Z,18.64
2023-05-19T03:47:07.346Z,18.67
2023-05-19T03:50:01.753Z,18.70
2023-05-19T03:52:47.502Z,18.71
2023-05-19T03:55:29.175Z,18.72
2023-05-19T03:57:56.478Z,18.74
2023-05-19T04:00:23.336Z,18.76
2023-05-19T04:02:51.108Z,18.77
2023-05-19T04:05:17.900Z,18.79
2023-05-19T04:07:46.040Z,18.81
2023-05-19T04:10:13.029Z,18.82
2023-05-19T04:12:40.033Z,18.83
2023-05-19T04:15:07.330Z,18.85
2023-05-19T04:17:34.423Z,18.88
2023-05-19T04:20:01.023Z,18.88
2023-05-19T04:22:28.615Z,18.89
2023-05-19T04:24:55.579Z,18.89
2023-05-19T04:27:22.427Z,18.89
2023-05-19T04:29:49.712Z,18.87
2023-05-19T04:32:18.872Z,18.83
2023-05-19T04:34:45.722Z,18.83
2023-05-19T04:37:19.602Z,18.84
2023-05-19T04:39:46.309Z,18.85
2023-05-19T04:42:13.191Z,18.82
2023-05-19T04:44:40.242Z,18.78
2023-05-19T04:47:08.115Z,18.76
2023-05-19T04:49:38.491Z,18.77
2023-05-19T04:52:12.518Z,18.79
2023-05-19T04:54:41.214Z,18.79
2023-05-19T04:57:09.812Z,18.78
2023-05-19T04:59:37.823Z,18.78
2023-05-19T05:02:06.442Z,18.81
2023-05-19T05:04:35.517Z,18.82
2023-05-19T05:07:02.373Z,18.84
2023-05-19T05:11:18.901Z,18.90
2023-05-19T05:13:47.265Z,18.88
2023-05-19T05:16:15.341Z,18.81
2023-05-19T05:18:44.640Z,18.80
2023-05-19T05:21:12.520Z,18.87
2023-05-19T05:23:40.647Z,18.85
2023-05-19T05:28:15.658Z,18.83
2023-05-19T05:30:43.806Z,18.80
2023-05-19T05:33:12.056Z,18.80
2023-05-19T05:35:39.635Z,18.80
2023-05-19T05:38:07.096Z,18.80
2023-05-19T05:40:34.353Z,18.81
2023-05-19T05:43:01.505Z,18.83
2023-05-19T05:45:30.423Z,18.86
2023-05-19T05:47:58.518Z,18.88
2023-05-19T05:50:25.945Z,18.89
2023-05-19T05:52:53.955Z,18.92
2023-05-19T05:55:21.675Z,18.94
2023-05-19T05:57:50.803Z,18.97
2023-05-19T06:00:18.703Z,19.01
2023-05-19T06:02:50.793Z,19.04
2023-05-19T06:05:18.688Z,19.05
2023-05-19T06:07:46.884Z,19.05
2023-05-19T06:10:17.398Z,19.04
2023-05-19T06:12:44.443Z,19.02
2023-05-19T06:15:11.479Z,19.01
2023-05-19T06:17:48.468Z,19.00
2023-05-19T06:20:16.434Z,19.01
2023-05-19T06:22:43.524Z,19.03
2023-05-19T06:25:10.819Z,19.03
2023-05-19T06:27:37.578Z,19.06
2023-05-19T06:30:04.953Z,19.11
2023-05-19T06:32:35.615Z,19.19
2023-05-19T06:35:02.523Z,19.24
2023-05-19T06:37:29.551Z,19.29
2023-05-19T06:39:57.243Z,19.32
2023-05-19T06:42:25.465Z,19.34
2023-05-19T06:45:07.534Z,19.35
2023-05-19T06:47:34.378Z,19.35
2023-05-19T06:50:01.657Z,19.37
2023-05-19T06:52:30.946Z,19.41
2023-05-19T06:54:58.189Z,19.49
2023-05-19T06:57:25.018Z,19.59
2023-05-19T06:59:51.799Z,19.70
2023-05-19T07:02:18.870Z,19.77
2023-05-19T07:04:46.062Z,19.83
2023-05-19T07:07:13.819Z,19.89
2023-05-19T07:09:40.770Z,19.93
2023-05-19T07:12:08.246Z,20.01
2023-05-19T07:14:36.684Z,20.13
2023-05-19T07:17:03.549Z,20.29
2023-05-19T07:19:31.415Z,20.44
2023-05-19T07:21:59.501Z,20.55
2023-05-19T07:24:27.662Z,20.63
2023-05-19T07:26:54.414Z,20.80
2023-05-19T07:29:21.152Z,21.00
2023-05-19T07:31:48.392Z,21.16
2023-05-19T07:34:15.368Z,21.26
2023-05-19T07:36:42.219Z,21.33
2023-05-19T07:39:09.109Z,21.40
2023-05-19T07:41:36.549Z,21.51
2023-05-19T07:44:07.910Z,21.64
2023-05-19T07:46:35.660Z,21.67
2023-05-19T07:49:02.523Z,21.71
2023-05-19T07:51:29.399Z,21.78
2023-05-19T07:53:57.450Z,21.87
2023-05-19T07:56:25.023Z,21.88
2023-05-19T07:58:51.955Z,21.88
2023-05-19T08:01:18.680Z,21.91
2023-05-19T08:03:45.472Z,21.95
2023-05-19T08:06:12.281Z,22.07
2023-05-19T08:08:39.504Z,22.17
2023-05-19T08:11:06.782Z,22.21
2023-05-19T08:13:34.798Z,22.27
2023-05-19T08:16:01.704Z,22.38
2023-05-19T08:18:28.776Z,22.45
2023-05-19T08:20:55.891Z,22.47
2023-05-19T08:23:23.094Z,22.50
2023-05-19T08:25:49.777Z,22.55
2023-05-19T08:28:17.206Z,22.58
2023-05-19T08:30:43.987Z,22.57
2023-05-19T08:33:10.788Z,22.50
2023-05-19T08:35:38.161Z,22.41
2023-05-19T08:38:04.894Z,22.40
2023-05-19T08:40:34.744Z,22.40
2023-05-19T08:43:03.817Z,22.40
2023-05-19T08:45:31.610Z,22.40
2023-05-19T08:47:58.549Z,22.55
2023-05-19T08:50:30.850Z,22.59
2023-05-19T08:56:10.745Z,22.68
2023-05-19T08:58:44.124Z,22.55
2023-05-19T09:01:15.199Z,22.45
2023-05-19T09:03:43.356Z,22.50
2023-05-19T09:06:14.248Z,22.52
2023-05-19T09:08:42.435Z,22.46
2023-05-19T09:11:10.881Z,22.39
2023-05-19T09:13:38.420Z,22.40
2023-05-19T09:16:05.628Z,22.49
2023-05-19T09:18:32.508Z,22.57
2023-05-19T09:21:03.137Z,22.53
2023-05-19T09:23:33.635Z,22.44
2023-05-19T09:26:07.428Z,22.40
2023-05-19T09:28:36.908Z,22.46
2023-05-19T09:31:11.301Z,22.53
2023-05-19T09:33:41.011Z,22.56
2023-05-19T09:36:10.943Z,22.53
2023-05-19T09:38:39.353Z,22.53
2023-05-19T09:41:07.956Z,22.54
2023-05-19T09:43:35.479Z,22.53
2023-05-19T09:46:07.299Z,22.50
2023-05-19T09:48:37.895Z,22.50
2023-05-19T09:51:08.138Z,22.45
2023-05-19T09:53:35.543Z,22.38
2023-05-19T09:56:04.265Z,22.35
2023-05-19T09:58:35.365Z,22.27
2023-05-19T10:01:03.849Z,22.24
2023-05-19T10:03:33.118Z,22.21
2023-05-19T10:06:01.644Z,22.21
2023-05-19T10:08:30.753Z,22.24
2023-05-19T10:10:58.496Z,22.22
2023-05-19T10:13:26.005Z,22.23
2023-05-19T10:15:59.032Z,22.25
2023-05-19T10:18:29.480Z,22.27
2023-05-19T10:20:57.997Z,22.30
2023-05-19T10:23:25.649Z,22.34
2023-05-19T10:25:56.675Z,22.39
2023-05-19T10:28:28.157Z,22.45
2023-05-19T10:31:01.527Z,22.48
2023-05-19T10:33:39.544Z,22.54
2023-05-19T10:36:25.872Z,22.59
2023-05-19T10:39:22.344Z,22.54
2023-05-19T10:42:17.134Z,22.49
2023-05-19T10:45:13.230Z,22.46
2023-05-19T10:47:44.289Z,22.38
2023-05-19T10:50:11.806Z,22.30
2023-05-19T10:52:39.818Z,22.29
2023-05-19T10:55:17.776Z,22.37
2023-05-19T10:57:57.058Z,22.48
2023-05-19T11:00:28.814Z,22.56
2023-05-19T11:03:15.680Z,22.58
2023-05-19T11:05:45.602Z,22.56
2023-05-19T11:08:13.457Z,22.49
2023-05-19T11:10:44.733Z,22.47
2023-05-19T11:13:20.009Z,22.39
2023-05-19T11:15:46.965Z,22.20
2023-05-19T11:18:17.705Z,22.06
2023-05-19T11:20:55.543Z,21.98
2023-05-19T11:23:26.076Z,21.90
2023-05-19T11:25:55.883Z,21.83
2023-05-19T11:28:28.275Z,21.73
2023-05-19T11:30:57.953Z,21.65
2023-05-19T11:33:27.919Z,21.62
2023-05-19T11:35:58.623Z,21.60
2023-05-19T11:38:26.631Z,21.58
2023-05-19T11:40:54.527Z,21.56
2023-05-19T11:43:26.199Z,21.59
2023-05-19T11:45:56.587Z,21.62
2023-05-19T11:48:25.037Z,21.62
2023-05-19T11:50:52.612Z,21.59
2023-05-19T11:53:20.141Z,21.55
2023-05-19T11:55:48.987Z,21.45
2023-05-19T11:58:16.824Z,21.35
2023-05-19T12:00:47.698Z,21.30
2023-05-19T12:03:15.112Z,21.28
2023-05-19T12:05:52.810Z,21.22
2023-05-19T12:08:21.744Z,21.17
2023-05-19T12:10:52.039Z,21.14
2023-05-19T12:13:19.557Z,21.15
2023-05-19T12:15:46.388Z,21.17
2023-05-19T12:18:13.224Z,21.16
2023-05-19T12:20:40.337Z,21.13
2023-05-19T12:23:07.842Z,21.13
2023-05-19T12:25:35.192Z,21.13
2023-05-19T12:28:06.071Z,21.13
2023-05-19T12:30:34.773Z,21.10
2023-05-19T12:33:03.319Z,21.09
2023-05-19T12:35:34.058Z,20.99
2023-05-19T12:38:05.550Z,21.01
2023-05-19T12:40:35.076Z,20.94
2023-05-19T12:43:02.614Z,20.90
2023-05-19T12:45:37.282Z,20.91
2023-05-19T12:48:06.918Z,21.00
2023-05-19T12:50:34.773Z,21.10
2023-05-19T12:53:02.442Z,21.06
2023-05-19T12:55:29.895Z,21.06
2023-05-19T12:57:58.543Z,21.13
2023-05-19T13:00:28.716Z,21.05
2023-05-19T13:03:05.134Z,20.96
2023-05-19T13:05:37.895Z,20.91
2023-05-19T13:08:09.292Z,20.86
2023-05-19T13:10:37.800Z,20.81
2023-05-19T13:13:05.600Z,20.79
2023-05-19T13:15:34.637Z,20.78
2023-05-19T13:18:03.616Z,20.69
2023-05-19T13:20:30.662Z,20.61
2023-05-19T13:22:57.661Z,20.58
2023-05-19T13:25:24.995Z,20.55
2023-05-19T13:27:51.944Z,20.52
2023-05-19T13:30:22.693Z,20.45
2023-05-19T13:32:49.890Z,20.37
2023-05-19T13:35:16.740Z,20.39
2023-05-19T13:37:43.692Z,20.37
2023-05-19T13:40:11.254Z,20.34
2023-05-19T13:42:38.176Z,20.43
2023-05-19T13:45:05.553Z,20.47
2023-05-19T13:47:32.575Z,20.48
2023-05-19T13:49:59.415Z,20.48
2023-05-19T13:52:28.951Z,20.49
2023-05-19T13:54:57.536Z,20.58
2023-05-19T13:57:26.448Z,20.60
2023-05-19T14:00:01.972Z,20.57
2023-05-19T14:02:39.941Z,20.58
2023-05-19T14:05:08.245Z,20.54
2023-05-19T14:07:35.498Z,20.53
2023-05-19T14:10:05.482Z,20.56
2023-05-19T14:12:41.566Z,20.59
2023-05-19T14:15:19.699Z,20.60
2023-05-19T14:17:46.523Z,20.59
2023-05-19T14:20:13.359Z,20.67
2023-05-19T14:22:40.544Z,20.74
2023-05-19T14:25:07.810Z,20.76
2023-05-19T14:27:34.551Z,20.69
2023-05-19T14:30:01.470Z,20.80
2023-05-19T14:32:30.239Z,20.75
2023-05-19T14:34:58.139Z,20.75
2023-05-19T14:37:28.914Z,20.80
2023-05-19T14:39:57.544Z,20.80
2023-05-19T14:42:25.047Z,20.82
2023-05-19T14:44:51.816Z,20.83
2023-05-19T14:47:18.479Z,20.82
2023-05-19T14:49:45.177Z,20.81
2023-05-19T14:52:11.948Z,20.81
2023-05-19T14:54:39.165Z,20.85
2023-05-19T14:57:07.708Z,20.91
2023-05-19T14:59:37.834Z,20.89
2023-05-19T15:02:05.417Z,20.80
2023-05-19T15:04:32.180Z,20.72
2023-05-19T15:09:32.447Z,20.73
2023-05-19T15:12:01.251Z,20.80
2023-05-19T15:14:30.106Z,20.79
2023-05-19T15:16:57.797Z,20.73
2023-05-19T15:19:26.398Z,20.68
2023-05-19T15:21:53.324Z,20.64
2023-05-19T15:24:20.189Z,20.59
2023-05-19T15:26:47.587Z,20.60
2023-05-19T15:29:14.387Z,20.66
2023-05-19T15:31:41.478Z,20.68
2023-05-19T15:34:08.613Z,20.67
2023-05-19T15:36:35.615Z,20.67
2023-05-19T15:39:03.745Z,20.67
2023-05-19T15:41:30.757Z,20.69
2023-05-19T15:44:00.203Z,20.76
2023-05-19T15:46:27.444Z,20.83
2023-05-19T15:48:54.818Z,20.84
2023-05-19T15:51:21.728Z,20.79
2023-05-19T15:53:48.584Z,20.72
2023-05-19T15:56:15.456Z,20.63
2023-05-19T15:58:42.312Z,20.52
2023-05-19T16:01:09.117Z,20.51
2023-05-19T16:03:36.154Z,20.61
2023-05-19T16:06:03.653Z,20.59
2023-05-19T16:08:30.515Z,20.55
2023-05-19T16:10:57.401Z,20.50
2023-05-19T16:13:24.858Z,20.46
2023-05-19T16:15:52.594Z,20.41
2023-05-19T16:18:19.749Z,20.44
2023-05-19T16:20:46.498Z,20.47
2023-05-19T16:23:13.253Z,20.44
2023-05-19T16:25:40.047Z,20.40
2023-05-19T16:28:06.958Z,20.37
2023-05-19T16:30:34.610Z,20.34
2023-05-19T16:33:01.811Z,20.31
2023-05-19T16:35:29.695Z,20.31
2023-05-19T16:37:57.993Z,20.35
2023-05-19T16:40:24.874Z,20.36
2023-05-19T16:42:54.676Z,20.35
2023-05-19T16:45:21.475Z,20.32
2023-05-19T16:47:48.372Z,20.29
2023-05-19T16:50:15.288Z,20.26
2023-05-19T16:52:44.308Z,20.23
2023-05-19T16:55:11.191Z,20.22
2023-05-19T16:57:38.431Z,20.26
2023-05-19T17:00:05.799Z,20.30
2023-05-19T17:02:32.801Z,20.31
2023-05-19T17:04:59.739Z,20.29
2023-05-19T17:07:29.106Z,20.24
2023-05-19T17:09:56.234Z,20.16
2023-05-19T17:12:23.276Z,20.07
2023-05-19T17:14:52.266Z,20.02
2023-05-19T17:17:19.469Z,20.02
2023-05-19T17:19:46.918Z,20.04
2023-05-19T17:22:13.763Z,20.04
2023-05-19T17:24:41.280Z,20.00
2023-05-19T17:27:08.066Z,19.97
2023-05-19T17:29:34.911Z,19.92
2023-05-19T17:32:04.189Z,19.91
2023-05-19T17:34:30.956Z,19.89
2023-05-19T17:36:57.802Z,19.86
2023-05-19T17:39:24.807Z,19.88
2023-05-19T17:41:52.598Z,19.84
2023-05-19T17:45:16.150Z,19.81
2023-05-19T17:47:47.399Z,19.82
2023-05-19T17:50:23.492Z,19.81
2023-05-19T17:52:54.879Z,19.77
2023-05-19T17:56:03.097Z,19.77
2023-05-19T17:58:36.563Z,19.75
2023-05-19T18:01:03.530Z,19.68
2023-05-19T18:03:31.882Z,19.64
2023-05-19T18:06:02.736Z,19.59
2023-05-19T18:08:32.959Z,19.56
2023-05-19T18:11:00.823Z,19.54
2023-05-19T18:13:28.096Z,19.56
2023-05-19T18:15:57.054Z,19.54
2023-05-19T18:18:25.048Z,19.49
2023-05-19T18:20:52.213Z,19.45
2023-05-19T18:23:20.590Z,19.42
2023-05-19T18:25:53.292Z,19.45
2023-05-19T18:28:20.260Z,19.48
2023-05-19T18:30:47.164Z,19.46
2023-05-19T18:33:14.676Z,19.41
2023-05-19T18:35:42.926Z,19.38
2023-05-19T18:38:09.722Z,19.33
2023-05-19T18:40:39.644Z,19.32
2023-05-19T18:43:06.638Z,19.35
2023-05-19T18:45:33.437Z,19.36
2023-05-19T18:48:00.312Z,19.33
2023-05-19T18:50:27.586Z,19.25
2023-05-19T18:52:54.360Z,19.19
2023-05-19T18:55:21.087Z,19.14
2023-05-19T18:57:47.859Z,19.09
2023-05-19T19:00:15.016Z,19.05
2023-05-19T19:02:41.833Z,18.97
2023-05-19T19:05:11.496Z,18.90
2023-05-19T19:07:43.083Z,18.88
2023-05-19T19:10:10.107Z,18.83
2023-05-19T19:12:37.140Z,18.83
2023-05-19T19:15:04.491Z,18.79
2023-05-19T19:17:31.479Z,18.82
2023-05-19T19:19:58.302Z,18.80
2023-05-19T19:22:25.185Z,18.64
2023-05-19T19:24:51.946Z,18.51
2023-05-19T19:27:20.871Z,18.54
2023-05-19T19:29:47.653Z,18.51
2023-05-19T19:32:14.481Z,18.57
2023-05-19T19:34:41.375Z,18.57
2023-05-19T19:37:08.205Z,18.54
2023-05-19T19:39:34.958Z,18.58
2023-05-19T19:42:01.700Z,18.56
2023-05-19T19:44:28.451Z,18.55
2023-05-19T19:46:55.355Z,18.50
2023-05-19T19:49:22.130Z,18.54
2023-05-19T19:51:48.876Z,18.47
2023-05-19T19:54:15.608Z,18.45
2023-05-19T19:56:42.325Z,18.46
2023-05-19T19:59:09.086Z,18.28
2023-05-19T20:01:35.887Z,18.27
2023-05-19T20:04:04.228Z,18.24
2023-05-19T20:06:32.281Z,18.20
2023-05-19T20:08:59.485Z,18.21
2023-05-19T20:11:26.864Z,18.15
2023-05-19T20:13:53.594Z,18.13
2023-05-19T20:16:20.453Z,18.15
2023-05-19T20:18:47.179Z,18.13
2023-05-19T20:21:13.958Z,18.23
2023-05-19T20:23:40.820Z,18.20
2023-05-19T20:26:12.775Z,18.21
2023-05-19T20:28:40.532Z,18.24
2023-05-19T20:31:07.592Z,18.26
2023-05-19T20:33:34.676Z,18.23
2023-05-19T20:36:01.456Z,18.21
2023-05-19T20:38:28.241Z,18.16
2023-05-19T20:43:58.146Z,18.19
2023-05-19T20:46:24.979Z,18.16
2023-05-19T20:48:52.072Z,18.09
2023-05-19T20:51:19.283Z,18.13
2023-05-19T20:53:46.059Z,18.10
2023-05-19T20:56:13.163Z,18.25
2023-05-19T20:58:40.059Z,18.22
2023-05-19T21:01:06.909Z,18.06
2023-05-19T21:03:33.767Z,18.07
2023-05-19T21:06:00.968Z,18.02
2023-05-19T21:08:27.806Z,18.02
2023-05-19T21:10:54.582Z,18.00
2023-05-19T21:13:21.420Z,17.85
2023-05-19T21:15:49.083Z,17.82
2023-05-19T21:18:16.128Z,17.90
2023-05-19T21:20:42.904Z,17.88
2023-05-19T21:23:09.651Z,17.81
2023-05-19T21:25:36.490Z,17.74
2023-05-19T21:28:03.558Z,17.70
2023-05-19T21:30:30.504Z,17.66
2023-05-19T21:32:57.383Z,17.61
2023-05-19T21:35:24.344Z,17.53
2023-05-19T21:37:51.154Z,17.39
2023-05-19T21:40:17.927Z,17.59
2023-05-19T21:42:44.672Z,17.70
2023-05-19T21:45:11.695Z,17.68
2023-05-19T21:47:38.606Z,17.60
2023-05-19T21:50:06.349Z,17.50
2023-05-19T21:52:33.396Z,17.50
2023-05-19T21:55:00.240Z,17.54
2023-05-19T21:57:26.981Z,17.54
2023-05-19T21:59:53.770Z,17.43
2023-05-19T22:02:21.177Z,17.46
2023-05-19T22:04:48.186Z,17.43
2023-05-19T22:07:15.040Z,17.40
2023-05-19T22:09:41.840Z,17.39
2023-05-19T22:12:08.643Z,17.42
2023-05-19T22:14:35.914Z,17.44
2023-05-19T22:17:02.743Z,17.47
2023-05-19T22:19:29.711Z,17.39
2023-05-19T22:22:09.858Z,17.16
2023-05-19T22:24:39.797Z,17.26
2023-05-19T22:27:09.873Z,17.23
2023-05-19T22:29:38.559Z,17.23
2023-05-19T22:32:07.703Z,17.36
2023-05-19T22:34:34.576Z,17.33
2023-05-19T22:37:01.919Z,17.38
2023-05-19T22:39:28.682Z,17.44
2023-05-19T22:41:55.547Z,17.42
2023-05-19T22:44:22.297Z,17.42
2023-05-19T22:46:49.009Z,17.41
2023-05-19T22:49:16.016Z,17.40
2023-05-19T22:51:42.852Z,17.44
2023-05-19T22:54:10.524Z,17.46
2023-05-19T22:56:37.323Z,17.43
2023-05-19T22:59:04.042Z,17.38
2023-05-19T23:01:31.241Z,17.40
2023-05-19T23:03:58.042Z,17.45
2023-05-19T23:06:24.860Z,17.47
2023-05-19T23:09:00.239Z,17.44
2023-05-19T23:11:26.970Z,17.31
2023-05-19T23:13:53.690Z,17.15
2023-05-19T23:16:20.737Z,17.04
2023-05-19T23:18:47.517Z,16.99
2023-05-19T23:21:14.280Z,16.92
2023-05-19T23:23:41.003Z,16.84
2023-05-19T23:26:07.781Z,16.80
2023-05-19T23:28:34.733Z,16.80
2023-05-19T23:31:01.646Z,16.82
2023-05-19T23:33:28.449Z,16.74
2023-05-19T23:35:55.278Z,16.64
2023-05-19T23:38:22.020Z,16.60
2023-05-19T23:40:48.781Z,16.57
2023-05-19T23:43:15.678Z,16.54
2023-05-19T23:45:42.848Z,16.57
2023-05-19T23:48:09.638Z,16.59
2023-05-19T23:50:36.670Z,16.61
2023-05-19T23:53:03.399Z,16.63
2023-05-19T23:55:30.173Z,16.61
2023-05-19T23:57:56.925Z,16.57
